createdAt,value
2023-02-15T00:00:41.849Z,8.20
2023-02-15T00:01:41.869Z,11.30
2023-02-15T00:02:41.884Z,9.40
2023-02-15T00:03:41.893Z,11.60
2023-02-15T00:04:41.912Z,10.80
2023-02-15T00:05:41.923Z,10.60
2023-02-15T00:06:41.944Z,10.00
2023-02-15T00:07:41.949Z,7.40
2023-02-15T00:08:41.962Z,6.50
2023-02-15T00:09:41.846Z,8.40
2023-02-15T00:10:41.992Z,9.60
2023-02-15T00:11:42.003Z,5.60
2023-02-15T00:12:42.025Z,8.50
2023-02-15T00:13:42.036Z,9.30
2023-02-15T00:14:42.046Z,7.20
2023-02-15T00:15:42.064Z,5.70
2023-02-15T00:16:42.115Z,7.00
2023-02-15T00:17:41.962Z,6.10
2023-02-15T00:18:42.105Z,11.10
2023-02-15T00:19:42.067Z,8.90
2023-02-15T00:20:42.141Z,5.50
2023-02-15T00:21:42.017Z,6.90
2023-02-15T00:22:42.165Z,5.80
2023-02-15T00:23:42.179Z,8.00
2023-02-15T00:24:42.191Z,8.10
2023-02-15T00:25:42.218Z,10.50
2023-02-15T00:26:42.218Z,6.90
2023-02-15T00:27:42.097Z,5.60
2023-02-15T00:28:42.245Z,8.40
2023-02-15T00:29:42.135Z,6.90
2023-02-15T00:30:42.304Z,13.50
2023-02-15T00:31:42.309Z,9.50
2023-02-15T00:32:42.306Z,5.60
2023-02-15T00:33:42.316Z,6.80
2023-02-15T00:35:42.250Z,7.80
2023-02-15T00:36:42.357Z,8.50
2023-02-15T00:37:42.241Z,9.90
2023-02-15T00:38:42.387Z,10.70
2023-02-15T00:39:42.265Z,9.30
2023-02-15T00:40:42.416Z,8.50
2023-02-15T00:41:42.313Z,8.00
2023-02-15T00:42:42.438Z,11.60
2023-02-15T00:43:42.327Z,8.10
2023-02-15T00:44:42.469Z,8.90
2023-02-15T00:45:42.506Z,10.30
2023-02-15T00:46:42.497Z,7.60
2023-02-15T00:47:42.393Z,9.90
2023-02-15T00:48:42.524Z,10.80
2023-02-15T00:49:42.405Z,9.50
2023-02-15T00:50:42.555Z,7.80
2023-02-15T00:51:42.460Z,10.20
2023-02-15T00:52:42.585Z,10.50
2023-02-15T00:53:42.480Z,9.80
2023-02-15T00:54:42.609Z,8.50
2023-02-15T00:55:42.490Z,8.20
2023-02-15T00:56:42.640Z,8.20
2023-02-15T00:57:42.517Z,8.30
2023-02-15T00:58:42.671Z,8.30
2023-02-15T00:59:42.572Z,9.00
2023-02-15T01:00:42.693Z,11.30
2023-02-15T01:01:42.580Z,8.80
2023-02-15T01:02:42.720Z,10.80
2023-02-15T01:03:42.619Z,8.70
2023-02-15T01:04:42.819Z,7.00
2023-02-15T01:05:42.636Z,8.20
2023-02-15T01:06:42.796Z,9.20
2023-02-15T01:07:42.687Z,9.00
2023-02-15T01:08:42.821Z,7.90
2023-02-15T01:09:42.695Z,9.10
2023-02-15T01:10:42.718Z,8.20
2023-02-15T01:11:42.714Z,7.60
2023-02-15T01:12:42.861Z,6.40
2023-02-15T01:13:42.874Z,7.70
2023-02-15T01:14:42.888Z,6.20
2023-02-15T01:15:44.104Z,7.30
2023-02-15T01:16:42.921Z,12.70
2023-02-15T01:17:42.810Z,8.30
2023-02-15T01:18:42.969Z,7.40
2023-02-15T01:19:42.835Z,9.80
2023-02-15T01:20:42.977Z,10.30
2023-02-15T01:21:42.986Z,8.60
2023-02-15T01:22:43.008Z,7.50
2023-02-15T01:23:43.045Z,7.50
2023-02-15T01:24:43.029Z,5.90
2023-02-15T01:25:42.916Z,9.60
2023-02-15T01:26:43.068Z,9.10
2023-02-15T01:27:42.956Z,7.80
2023-02-15T01:28:43.100Z,11.10
2023-02-15T01:29:43.101Z,6.70
2023-02-15T01:30:43.195Z,7.40
2023-02-15T01:31:43.234Z,7.50
2023-02-15T01:32:43.145Z,8.80
2023-02-15T01:33:43.038Z,9.30
2023-02-15T01:34:43.168Z,5.70
2023-02-15T01:35:43.051Z,5.30
2023-02-15T01:36:43.200Z,6.10
2023-02-15T01:37:43.082Z,5.60
2023-02-15T01:38:43.131Z,5.90
2023-02-15T01:39:43.134Z,10.70
2023-02-15T01:40:43.250Z,6.70
2023-02-15T01:41:43.264Z,6.10
2023-02-15T01:42:43.278Z,8.30
2023-02-15T01:43:43.290Z,5.20
2023-02-15T01:44:43.308Z,5.40
2023-02-15T01:45:43.323Z,6.00
2023-02-15T01:46:43.332Z,4.20
2023-02-15T01:47:43.230Z,4.90
2023-02-15T01:48:43.245Z,6.30
2023-02-15T01:49:43.243Z,4.20
2023-02-15T01:50:43.391Z,3.60
2023-02-15T01:51:43.267Z,5.10
2023-02-15T01:52:43.421Z,3.70
2023-02-15T01:53:43.305Z,3.10
2023-02-15T01:54:43.443Z,5.50
2023-02-15T01:55:43.453Z,5.20
2023-02-15T01:56:43.478Z,3.70
2023-02-15T01:57:43.348Z,6.90
2023-02-15T01:58:43.380Z,5.60
2023-02-15T01:59:43.520Z,3.70
2023-02-15T02:00:43.523Z,3.00
2023-02-15T02:01:43.584Z,4.70
2023-02-15T02:02:43.574Z,5.00
2023-02-15T02:03:43.427Z,4.80
2023-02-15T02:04:43.573Z,5.20
2023-02-15T02:05:43.455Z,4.00
2023-02-15T02:06:43.599Z,4.60
2023-02-15T02:07:43.619Z,4.60
2023-02-15T02:08:43.630Z,4.70
2023-02-15T02:09:43.642Z,3.30
2023-02-15T02:10:43.539Z,6.60
2023-02-15T02:11:43.671Z,3.20
2023-02-15T02:12:43.550Z,3.80
2023-02-15T02:13:43.695Z,4.30
2023-02-15T02:14:43.708Z,5.90
2023-02-15T02:15:43.733Z,4.00
2023-02-15T02:16:43.607Z,3.90
2023-02-15T02:17:43.754Z,9.20
2023-02-15T02:18:43.636Z,3.70
2023-02-15T02:19:43.778Z,4.30
2023-02-15T02:20:43.689Z,3.60
2023-02-15T02:21:43.809Z,2.90
2023-02-15T02:22:43.685Z,4.80
2023-02-15T02:23:43.833Z,3.20
2023-02-15T02:24:43.708Z,4.00
2023-02-15T02:25:43.858Z,5.80
2023-02-15T02:26:43.735Z,3.10
2023-02-15T02:27:43.885Z,4.00
2023-02-15T02:28:43.972Z,3.50
2023-02-15T02:29:43.920Z,3.90
2023-02-15T02:30:43.887Z,3.00
2023-02-15T02:31:44.029Z,4.00
2023-02-15T02:32:43.822Z,4.30
2023-02-15T02:33:43.966Z,3.30
2023-02-15T02:34:43.840Z,4.10
2023-02-15T02:35:43.993Z,4.50
2023-02-15T02:36:43.869Z,3.50
2023-02-15T02:37:44.018Z,3.20
2023-02-15T02:38:43.904Z,3.70
2023-02-15T02:39:44.045Z,3.70
2023-02-15T02:40:43.940Z,3.50
2023-02-15T02:41:44.070Z,3.50
2023-02-15T02:42:43.947Z,4.50
2023-02-15T02:43:44.102Z,5.20
2023-02-15T02:44:44.112Z,4.80
2023-02-15T02:45:44.227Z,7.10
2023-02-15T02:46:44.163Z,6.30
2023-02-15T02:47:44.149Z,4.10
2023-02-15T02:48:44.161Z,5.40
2023-02-15T02:49:44.179Z,6.10
2023-02-15T02:50:44.064Z,8.30
2023-02-15T02:51:44.205Z,4.80
2023-02-15T02:52:44.102Z,5.30
2023-02-15T02:53:44.228Z,7.20
2023-02-15T02:54:44.113Z,7.80
2023-02-15T02:55:44.258Z,4.70
2023-02-15T02:56:44.269Z,4.20
2023-02-15T02:57:44.284Z,4.40
2023-02-15T02:58:44.169Z,5.10
2023-02-15T02:59:44.311Z,3.20
2023-02-15T03:00:44.193Z,7.70
2023-02-15T03:01:44.364Z,15.80
2023-02-15T03:02:44.272Z,7.60
2023-02-15T03:03:44.362Z,6.00
2023-02-15T03:04:44.392Z,4.20
2023-02-15T03:05:44.390Z,4.80
2023-02-15T03:06:44.267Z,7.20
2023-02-15T03:07:44.415Z,6.50
2023-02-15T03:08:44.298Z,6.60
2023-02-15T03:09:44.447Z,6.60
2023-02-15T03:10:44.454Z,4.90
2023-02-15T03:11:44.475Z,4.50
2023-02-15T03:12:44.346Z,5.40
2023-02-15T03:13:44.492Z,6.60
2023-02-15T03:14:44.385Z,6.70
2023-02-15T03:15:44.583Z,3.90
2023-02-15T03:16:44.404Z,7.40
2023-02-15T03:17:44.540Z,6.60
2023-02-15T03:18:44.557Z,6.80
2023-02-15T03:19:44.564Z,9.40
2023-02-15T03:20:44.578Z,6.50
2023-02-15T03:21:44.477Z,7.90
2023-02-15T03:22:44.468Z,6.80
2023-02-15T03:23:44.614Z,6.20
2023-02-15T03:24:44.497Z,2.90
2023-02-15T03:25:44.636Z,5.50
2023-02-15T03:26:44.647Z,20.20
2023-02-15T03:27:44.539Z,14.10
2023-02-15T03:28:44.697Z,20.40
2023-02-15T03:29:44.683Z,17.20
2023-02-15T03:30:44.564Z,8.00
2023-02-15T03:31:44.852Z,10.50
2023-02-15T03:32:44.721Z,10.10
2023-02-15T03:33:44.627Z,6.70
2023-02-15T03:34:44.610Z,11.60
2023-02-15T03:35:44.754Z,12.10
2023-02-15T03:36:44.762Z,3.90
2023-02-15T03:37:44.775Z,2.50
2023-02-15T03:38:44.651Z,1.00
2023-02-15T03:39:44.677Z,1.00
2023-02-15T03:40:44.674Z,1.00
2023-02-15T03:41:44.820Z,1.00
2023-02-15T03:42:44.703Z,1.00
2023-02-15T03:43:44.860Z,1.00
2023-02-15T03:44:44.849Z,1.00
2023-02-15T03:45:44.860Z,1.00
2023-02-15T03:46:44.767Z,1.00
2023-02-15T03:47:44.888Z,1.00
2023-02-15T03:48:44.896Z,1.00
2023-02-15T03:49:44.930Z,1.00
2023-02-15T03:50:44.914Z,1.00
2023-02-15T03:51:44.927Z,1.00
2023-02-15T03:52:44.806Z,1.00
2023-02-15T03:53:44.971Z,0.90
2023-02-15T03:54:44.956Z,0.90
2023-02-15T03:55:44.970Z,1.00
2023-02-15T03:56:44.850Z,1.00
2023-02-15T03:57:44.997Z,0.90
2023-02-15T03:58:44.869Z,1.00
2023-02-15T03:59:45.015Z,1.00
2023-02-15T04:00:45.089Z,1.00
2023-02-15T04:01:45.042Z,1.00
2023-02-15T04:02:45.073Z,1.00
2023-02-15T04:03:45.055Z,1.00
2023-02-15T04:04:45.072Z,1.00
2023-02-15T04:05:45.081Z,1.00
2023-02-15T04:06:44.966Z,1.00
2023-02-15T04:07:45.104Z,1.00
2023-02-15T04:08:45.112Z,1.00
2023-02-15T04:09:45.131Z,1.00
2023-02-15T04:10:45.002Z,1.00
2023-02-15T04:11:45.147Z,1.00
2023-02-15T04:12:45.022Z,1.00
2023-02-15T04:13:45.171Z,1.00
2023-02-15T04:14:45.059Z,0.90
2023-02-15T04:15:45.074Z,1.00
2023-02-15T04:16:45.262Z,1.00
2023-02-15T04:17:45.211Z,0.90
2023-02-15T04:18:45.086Z,1.00
2023-02-15T04:19:45.235Z,1.00
2023-02-15T04:20:45.109Z,1.00
2023-02-15T04:21:45.259Z,1.00
2023-02-15T04:22:45.162Z,1.00
2023-02-15T04:23:45.273Z,1.00
2023-02-15T04:24:45.161Z,1.00
2023-02-15T04:25:45.299Z,1.00
2023-02-15T04:26:45.306Z,1.00
2023-02-15T04:27:45.320Z,1.00
2023-02-15T04:28:45.194Z,1.00
2023-02-15T04:29:45.372Z,1.00
2023-02-15T04:30:45.221Z,1.00
2023-02-15T04:31:45.464Z,1.10
2023-02-15T04:32:45.258Z,1.00
2023-02-15T04:33:45.383Z,1.00
2023-02-15T04:34:45.288Z,1.00
2023-02-15T04:35:45.404Z,1.00
2023-02-15T04:36:45.298Z,1.00
2023-02-15T04:37:45.440Z,1.00
2023-02-15T04:38:45.323Z,0.90
2023-02-15T04:39:45.451Z,1.00
2023-02-15T04:40:45.326Z,1.00
2023-02-15T04:41:45.478Z,1.00
2023-02-15T04:42:45.347Z,1.00
2023-02-15T04:43:45.492Z,1.00
2023-02-15T04:44:45.397Z,1.00
2023-02-15T04:45:45.539Z,1.00
2023-02-15T04:46:45.407Z,1.00
2023-02-15T04:47:45.552Z,1.00
2023-02-15T04:48:45.419Z,1.00
2023-02-15T04:49:45.558Z,1.00
2023-02-15T04:50:45.581Z,1.00
2023-02-15T04:51:45.585Z,1.00
2023-02-15T04:52:45.509Z,1.00
2023-02-15T04:53:45.605Z,1.00
2023-02-15T04:54:45.481Z,1.00
2023-02-15T04:55:45.626Z,1.00
2023-02-15T04:56:45.510Z,1.00
2023-02-15T04:57:45.649Z,1.30
2023-02-15T04:58:45.534Z,1.00
2023-02-15T04:59:45.671Z,1.00
2023-02-15T05:00:45.724Z,1.00
2023-02-15T05:01:45.694Z,1.00
2023-02-15T05:02:45.577Z,1.00
2023-02-15T05:03:45.721Z,1.00
2023-02-15T05:04:45.597Z,1.00
2023-02-15T05:05:45.739Z,1.00
2023-02-15T05:06:45.615Z,1.00
2023-02-15T05:07:45.759Z,1.00
2023-02-15T05:08:45.640Z,1.00
2023-02-15T05:09:45.783Z,1.00
2023-02-15T05:10:45.662Z,1.00
2023-02-15T05:11:45.807Z,1.40
2023-02-15T05:12:45.682Z,1.00
2023-02-15T05:13:45.837Z,0.90
2023-02-15T05:14:45.844Z,0.90
2023-02-15T05:15:45.855Z,1.00
2023-02-15T05:16:45.791Z,1.10
2023-02-15T05:17:45.873Z,1.00
2023-02-15T05:18:45.885Z,1.00
2023-02-15T05:19:45.902Z,1.00
2023-02-15T05:20:45.905Z,1.00
2023-02-15T05:21:45.918Z,1.00
2023-02-15T05:22:45.801Z,1.00
2023-02-15T05:23:45.939Z,1.00
2023-02-15T05:24:45.823Z,1.00
2023-02-15T05:25:45.847Z,1.00
2023-02-15T05:26:45.864Z,1.00
2023-02-15T05:27:45.996Z,1.00
2023-02-15T05:28:45.999Z,1.00
2023-02-15T05:29:46.011Z,1.00
2023-02-15T05:30:46.201Z,1.00
2023-02-15T05:31:46.127Z,1.00
2023-02-15T05:32:46.076Z,1.00
2023-02-15T05:33:46.064Z,1.00
2023-02-15T05:34:46.070Z,1.00
2023-02-15T05:35:46.083Z,0.90
2023-02-15T05:36:45.957Z,1.00
2023-02-15T05:37:46.103Z,1.00
2023-02-15T05:38:45.978Z,1.00
2023-02-15T05:39:46.124Z,1.00
2023-02-15T05:40:46.006Z,1.00
2023-02-15T05:41:46.147Z,1.60
2023-02-15T05:42:46.157Z,1.30
2023-02-15T05:43:46.168Z,1.00
2023-02-15T05:44:46.182Z,1.00
2023-02-15T05:45:46.127Z,1.00
2023-02-15T05:46:46.202Z,1.00
2023-02-15T05:47:46.215Z,1.00
2023-02-15T05:48:46.098Z,1.70
2023-02-15T05:49:46.244Z,1.00
2023-02-15T05:50:46.123Z,1.00
2023-02-15T05:51:46.265Z,1.00
2023-02-15T05:52:46.272Z,1.00
2023-02-15T05:53:46.284Z,1.00
2023-02-15T05:54:46.171Z,0.90
2023-02-15T05:55:46.303Z,1.00
2023-02-15T05:56:46.187Z,1.00
2023-02-15T05:57:46.338Z,1.00
2023-02-15T05:58:46.336Z,1.00
2023-02-15T05:59:46.348Z,1.00
2023-02-15T06:00:46.228Z,1.00
2023-02-15T06:01:46.252Z,1.00
2023-02-15T06:02:46.405Z,1.00
2023-02-15T06:03:46.486Z,1.00
2023-02-15T06:04:46.268Z,1.00
2023-02-15T06:05:46.417Z,1.20
2023-02-15T06:06:46.303Z,1.00
2023-02-15T06:07:46.436Z,1.00
2023-02-15T06:08:46.325Z,1.00
2023-02-15T06:09:46.458Z,0.90
2023-02-15T06:10:46.469Z,1.00
2023-02-15T06:11:46.494Z,1.00
2023-02-15T06:12:46.365Z,1.10
2023-02-15T06:13:46.507Z,1.00
2023-02-15T06:14:46.517Z,1.00
2023-02-15T06:15:46.579Z,1.00
2023-02-15T06:16:46.408Z,1.10
2023-02-15T06:17:46.554Z,1.00
2023-02-15T06:18:46.426Z,1.00
2023-02-15T06:19:46.571Z,1.00
2023-02-15T06:20:46.444Z,1.00
2023-02-15T06:21:46.596Z,1.00
2023-02-15T06:22:46.467Z,1.00
2023-02-15T06:23:46.614Z,1.00
2023-02-15T06:24:46.622Z,1.00
2023-02-15T06:25:46.636Z,1.00
2023-02-15T06:26:46.645Z,1.00
2023-02-15T06:27:46.545Z,0.90
2023-02-15T06:28:46.666Z,0.90
2023-02-15T06:29:46.548Z,1.00
2023-02-15T06:30:46.701Z,0.90
2023-02-15T06:31:46.691Z,0.90
2023-02-15T06:32:46.708Z,1.00
2023-02-15T06:33:46.586Z,1.00
2023-02-15T06:34:48.500Z,1.00
2023-02-15T06:35:46.743Z,1.00
2023-02-15T06:36:46.752Z,1.00
2023-02-15T06:37:46.630Z,1.00
2023-02-15T06:38:46.774Z,1.00
2023-02-15T06:39:46.657Z,1.00
2023-02-15T06:40:46.792Z,1.00
2023-02-15T06:41:46.673Z,1.00
2023-02-15T06:42:46.816Z,1.00
2023-02-15T06:43:46.824Z,1.00
2023-02-15T06:44:46.837Z,1.00
2023-02-15T06:45:46.848Z,1.10
2023-02-15T06:46:46.910Z,1.00
2023-02-15T06:47:46.750Z,1.00
2023-02-15T06:48:46.877Z,1.00
2023-02-15T06:49:46.755Z,1.00
2023-02-15T06:50:46.900Z,1.00
2023-02-15T06:51:46.784Z,0.90
2023-02-15T06:52:46.925Z,1.00
2023-02-15T06:53:46.954Z,1.00
2023-02-15T06:54:46.947Z,1.00
2023-02-15T06:55:46.951Z,1.00
2023-02-15T06:56:46.963Z,1.00
2023-02-15T06:57:47.658Z,1.00
2023-02-15T06:58:46.879Z,1.00
2023-02-15T06:59:46.994Z,1.00
2023-02-15T07:00:47.007Z,1.00
2023-02-15T07:01:46.975Z,1.00
2023-02-15T07:02:47.026Z,1.00
2023-02-15T07:03:47.036Z,1.00
2023-02-15T07:04:47.083Z,1.00
2023-02-15T07:05:46.944Z,1.00
2023-02-15T07:06:47.073Z,1.00
2023-02-15T07:07:46.944Z,1.00
2023-02-15T07:08:46.976Z,0.90
2023-02-15T07:09:47.098Z,2.90
2023-02-15T07:10:47.112Z,1.00
2023-02-15T07:11:46.982Z,1.00
2023-02-15T07:12:47.140Z,1.00
2023-02-15T07:13:47.141Z,1.10
2023-02-15T07:14:47.149Z,1.20
2023-02-15T07:15:47.097Z,1.00
2023-02-15T07:16:47.169Z,1.30
2023-02-15T07:17:47.454Z,1.50
2023-02-15T07:18:47.064Z,1.00
2023-02-15T07:19:47.068Z,1.00
2023-02-15T07:20:47.212Z,1.00
2023-02-15T07:21:47.223Z,1.00
2023-02-15T07:22:47.235Z,1.00
2023-02-15T07:23:47.111Z,1.00
2023-02-15T07:24:47.254Z,1.00
2023-02-15T07:25:47.264Z,1.10
2023-02-15T07:26:47.278Z,1.00
2023-02-15T07:27:47.284Z,1.00
2023-02-15T07:28:47.170Z,1.30
2023-02-15T07:29:47.182Z,1.00
2023-02-15T07:30:47.345Z,1.00
2023-02-15T07:31:47.326Z,1.00
2023-02-15T07:32:47.337Z,1.00
2023-02-15T07:33:47.348Z,1.00
2023-02-15T07:34:47.362Z,1.00
2023-02-15T07:35:47.232Z,1.00
2023-02-15T07:36:47.378Z,1.00
2023-02-15T07:38:47.401Z,1.00
2023-02-15T07:39:47.298Z,1.00
2023-02-15T07:40:47.421Z,1.00
2023-02-15T07:41:47.429Z,1.00
2023-02-15T07:42:47.442Z,1.00
2023-02-15T07:43:47.327Z,1.60
2023-02-15T07:44:47.476Z,1.00
2023-02-15T07:45:47.480Z,1.00
2023-02-15T07:46:47.480Z,1.00
2023-02-15T07:47:47.387Z,1.00
2023-02-15T07:48:47.508Z,0.90
2023-02-15T07:49:47.383Z,0.90
2023-02-15T07:50:47.527Z,1.00
2023-02-15T07:51:47.535Z,0.90
2023-02-15T07:52:47.547Z,1.20
2023-02-15T07:53:47.424Z,1.00
2023-02-15T07:54:47.566Z,1.00
2023-02-15T07:55:47.445Z,1.00
2023-02-15T07:56:47.590Z,1.00
2023-02-15T07:57:47.602Z,1.00
2023-02-15T07:58:47.609Z,1.50
2023-02-15T07:59:47.487Z,1.00
2023-02-15T08:00:47.640Z,1.00
2023-02-15T08:01:47.643Z,1.00
2023-02-15T08:02:47.669Z,1.00
2023-02-15T08:03:47.694Z,1.00
2023-02-15T08:04:47.672Z,1.00
2023-02-15T08:05:47.549Z,1.00
2023-02-15T08:06:47.699Z,1.10
2023-02-15T08:07:47.582Z,1.00
2023-02-15T08:08:47.715Z,1.00
2023-02-15T08:09:47.609Z,0.90
2023-02-15T08:10:47.750Z,1.00
2023-02-15T08:11:47.753Z,1.00
2023-02-15T08:12:47.757Z,1.00
2023-02-15T08:13:47.769Z,1.00
2023-02-15T08:14:47.790Z,1.00
2023-02-15T08:15:47.684Z,1.00
2023-02-15T08:16:47.822Z,1.00
2023-02-15T08:17:47.682Z,1.00
2023-02-15T08:18:47.825Z,1.00
2023-02-15T08:19:47.837Z,1.00
2023-02-15T08:20:47.849Z,1.00
2023-02-15T08:21:47.746Z,1.20
2023-02-15T08:22:47.883Z,1.00
2023-02-15T08:23:47.747Z,1.00
2023-02-15T08:24:47.893Z,1.00
2023-02-15T08:25:47.766Z,1.20
2023-02-15T08:26:47.915Z,1.00
2023-02-15T08:27:47.810Z,1.00
2023-02-15T08:28:47.932Z,1.00
2023-02-15T08:29:47.807Z,0.90
2023-02-15T08:30:48.168Z,0.90
2023-02-15T08:31:48.002Z,1.00
2023-02-15T08:32:47.974Z,0.90
2023-02-15T08:33:47.851Z,0.90
2023-02-15T08:34:47.996Z,1.00
2023-02-15T08:35:47.940Z,1.00
2023-02-15T08:36:48.019Z,1.40
2023-02-15T08:37:47.897Z,1.00
2023-02-15T08:38:48.041Z,1.30
2023-02-15T08:39:47.913Z,1.00
2023-02-15T08:40:48.059Z,1.00
2023-02-15T08:41:47.938Z,1.00
2023-02-15T08:42:48.080Z,1.00
2023-02-15T08:43:48.092Z,1.00
2023-02-15T08:44:49.488Z,1.00
2023-02-15T08:45:48.158Z,1.00
2023-02-15T08:46:48.123Z,1.00
2023-02-15T08:47:48.143Z,1.00
2023-02-15T08:48:48.145Z,1.00
2023-02-15T08:49:48.024Z,0.90
2023-02-15T08:50:48.163Z,0.90
2023-02-15T08:51:48.186Z,1.00
2023-02-15T08:52:48.186Z,0.90
2023-02-15T08:53:48.198Z,0.90
2023-02-15T08:54:48.204Z,2.20
2023-02-15T08:55:49.085Z,1.00
2023-02-15T08:56:48.227Z,0.90
2023-02-15T08:57:48.107Z,2.10
2023-02-15T08:58:48.247Z,1.00
2023-02-15T08:59:48.258Z,1.80
2023-02-15T09:00:48.307Z,1.00
2023-02-15T09:01:48.148Z,1.00
2023-02-15T09:02:48.289Z,1.00
2023-02-15T09:03:48.164Z,1.00
2023-02-15T09:04:48.314Z,1.00
2023-02-15T09:05:48.189Z,1.00
2023-02-15T09:06:49.147Z,1.00
2023-02-15T09:07:48.351Z,1.00
2023-02-15T09:08:48.353Z,1.00
2023-02-15T09:09:48.246Z,0.90
2023-02-15T09:10:48.260Z,0.90
2023-02-15T09:11:48.383Z,1.00
2023-02-15T09:12:48.396Z,0.90
2023-02-15T09:13:48.276Z,0.90
2023-02-15T09:14:48.416Z,1.00
2023-02-15T09:15:48.301Z,1.00
2023-02-15T09:16:48.468Z,1.00
2023-02-15T09:17:48.463Z,1.00
2023-02-15T09:18:48.460Z,1.00
2023-02-15T09:19:48.472Z,1.00
2023-02-15T09:20:48.362Z,1.00
2023-02-15T09:21:48.382Z,1.00
2023-02-15T09:22:48.378Z,1.00
2023-02-15T09:23:48.410Z,1.00
2023-02-15T09:24:48.673Z,1.00
2023-02-15T09:25:48.410Z,1.00
2023-02-15T09:26:48.571Z,1.00
2023-02-15T09:27:48.418Z,1.00
2023-02-15T09:28:48.567Z,1.00
2023-02-15T09:29:48.442Z,0.90
2023-02-15T09:30:48.691Z,0.90
2023-02-15T09:31:48.667Z,1.00
2023-02-15T09:32:48.494Z,1.30
2023-02-15T09:33:48.487Z,0.90
2023-02-15T09:34:48.637Z,1.00
2023-02-15T09:35:48.517Z,1.00
2023-02-15T09:36:48.655Z,1.00
2023-02-15T09:37:48.536Z,1.00
2023-02-15T09:38:48.678Z,1.00
2023-02-15T09:39:49.246Z,1.00
2023-02-15T09:40:48.698Z,1.00
2023-02-15T09:41:48.583Z,1.20
2023-02-15T09:42:48.726Z,1.00
2023-02-15T09:43:48.598Z,1.00
2023-02-15T09:44:48.746Z,1.00
2023-02-15T09:45:48.794Z,1.00
2023-02-15T09:46:48.769Z,1.00
2023-02-15T09:47:48.714Z,1.00
2023-02-15T09:48:48.789Z,1.00
2023-02-15T09:49:48.670Z,1.00
2023-02-15T09:50:48.814Z,0.90
2023-02-15T09:51:48.837Z,1.00
2023-02-15T09:52:48.854Z,1.00
2023-02-15T09:53:48.855Z,1.00
2023-02-15T09:54:48.866Z,1.00
2023-02-15T09:55:48.848Z,1.90
2023-02-15T09:56:48.893Z,1.00
2023-02-15T09:57:48.796Z,1.00
2023-02-15T09:58:48.920Z,1.00
2023-02-15T09:59:48.925Z,1.00
2023-02-15T10:00:48.937Z,1.00
2023-02-15T10:01:48.904Z,1.00
2023-02-15T10:02:48.967Z,1.00
2023-02-15T10:03:48.976Z,1.00
2023-02-15T10:04:49.019Z,0.90
2023-02-15T10:05:49.006Z,1.00
2023-02-15T10:06:49.015Z,1.00
2023-02-15T10:07:48.893Z,1.20
2023-02-15T10:08:49.049Z,1.00
2023-02-15T10:09:48.926Z,1.00
2023-02-15T10:10:49.069Z,1.00
2023-02-15T10:11:48.979Z,1.00
2023-02-15T10:12:49.098Z,1.00
2023-02-15T10:13:48.999Z,1.00
2023-02-15T10:14:49.123Z,1.00
2023-02-15T10:15:49.012Z,1.00
2023-02-15T10:16:49.201Z,1.00
2023-02-15T10:17:49.167Z,1.00
2023-02-15T10:18:49.180Z,1.00
2023-02-15T10:19:49.076Z,0.90
2023-02-15T10:20:49.212Z,1.00
2023-02-15T10:21:49.097Z,0.90
2023-02-15T10:22:49.250Z,1.00
2023-02-15T10:23:49.126Z,1.00
2023-02-15T10:24:49.273Z,1.00
2023-02-15T10:25:49.412Z,1.00
2023-02-15T10:26:49.304Z,4.90
2023-02-15T10:27:49.211Z,1.00
2023-02-15T10:28:49.339Z,1.00
2023-02-15T10:29:49.219Z,1.00
2023-02-15T10:30:49.403Z,1.00
2023-02-15T10:31:49.548Z,0.90
2023-02-15T10:32:49.407Z,1.00
2023-02-15T10:33:49.317Z,2.00
2023-02-15T10:34:49.438Z,1.00
2023-02-15T10:35:49.325Z,1.00
2023-02-15T10:36:49.470Z,1.00
2023-02-15T10:37:49.362Z,1.00
2023-02-15T10:38:49.504Z,1.00
2023-02-15T10:39:49.406Z,1.00
2023-02-15T10:40:49.541Z,1.00
2023-02-15T10:41:49.426Z,1.00
2023-02-15T10:42:49.446Z,0.90
2023-02-15T10:43:49.590Z,1.00
2023-02-15T10:44:49.609Z,1.00
2023-02-15T10:45:49.656Z,1.00
2023-02-15T10:46:49.505Z,1.00
2023-02-15T10:47:49.661Z,1.00
2023-02-15T10:48:49.679Z,1.00
2023-02-15T10:49:49.569Z,1.00
2023-02-15T10:50:49.707Z,1.00
2023-02-15T10:51:49.728Z,1.00
2023-02-15T10:52:49.615Z,1.00
2023-02-15T10:53:49.763Z,1.00
2023-02-15T10:54:49.778Z,0.90
2023-02-15T10:55:49.683Z,1.00
2023-02-15T10:56:49.819Z,1.00
2023-02-15T10:57:49.836Z,1.00
2023-02-15T10:58:49.725Z,1.00
2023-02-15T10:59:49.777Z,2.10
2023-02-15T11:00:49.759Z,4.30
2023-02-15T11:01:49.860Z,5.70
2023-02-15T11:02:49.800Z,6.40
2023-02-15T11:03:49.818Z,4.60
2023-02-15T11:04:49.849Z,4.00
2023-02-15T11:05:50.014Z,5.70
2023-02-15T11:06:49.872Z,3.90
2023-02-15T11:07:50.029Z,4.30
2023-02-15T11:08:50.045Z,5.50
2023-02-15T11:09:50.073Z,2.70
2023-02-15T11:10:50.081Z,4.90
2023-02-15T11:11:50.104Z,6.60
2023-02-15T11:12:49.991Z,4.00
2023-02-15T11:13:50.243Z,4.50
2023-02-15T11:14:50.029Z,5.40
2023-02-15T11:15:50.254Z,5.40
2023-02-15T11:16:50.077Z,4.00
2023-02-15T11:17:50.233Z,4.80
2023-02-15T11:18:50.327Z,4.80
2023-02-15T11:19:50.327Z,3.40
2023-02-15T11:20:50.153Z,4.00
2023-02-15T11:21:50.307Z,5.70
2023-02-15T11:22:50.330Z,4.00
2023-02-15T11:23:50.357Z,4.20
2023-02-15T11:24:50.384Z,4.30
2023-02-15T11:25:50.384Z,3.90
2023-02-15T11:26:50.278Z,6.10
2023-02-15T11:27:50.422Z,4.00
2023-02-15T11:28:50.441Z,5.60
2023-02-15T11:29:50.496Z,5.40
2023-02-15T11:30:50.513Z,5.80
2023-02-15T11:31:50.689Z,4.50
2023-02-15T11:32:50.389Z,4.20
2023-02-15T11:33:50.531Z,6.10
2023-02-15T11:34:50.445Z,6.80
2023-02-15T11:35:50.571Z,4.10
2023-02-15T11:36:50.588Z,4.40
2023-02-15T11:37:50.603Z,4.10
2023-02-15T11:38:50.488Z,4.50
2023-02-15T11:39:50.639Z,4.10
2023-02-15T11:40:50.656Z,4.70
2023-02-15T11:41:50.675Z,4.20
2023-02-15T11:42:50.560Z,4.20
2023-02-15T11:43:50.711Z,4.50
2023-02-15T11:44:50.725Z,4.20
2023-02-15T11:45:50.745Z,4.60
2023-02-15T11:46:50.739Z,4.50
2023-02-15T11:47:50.671Z,4.20
2023-02-15T11:48:50.665Z,3.70
2023-02-15T11:49:50.824Z,5.20
2023-02-15T11:50:50.836Z,3.30
2023-02-15T11:51:50.852Z,3.30
2023-02-15T11:52:50.869Z,5.00
2023-02-15T11:53:50.893Z,3.90
2023-02-15T11:54:50.775Z,4.20
2023-02-15T11:55:50.923Z,4.10
2023-02-15T11:56:50.827Z,3.20
2023-02-15T11:57:50.960Z,4.70
2023-02-15T11:58:50.847Z,5.00
2023-02-15T11:59:51.002Z,2.80
2023-02-15T12:00:50.881Z,3.60
2023-02-15T12:01:51.034Z,4.50
2023-02-15T12:02:51.069Z,3.80
2023-02-15T12:03:51.207Z,3.50
2023-02-15T12:04:50.954Z,3.90
2023-02-15T12:05:51.110Z,4.60
2023-02-15T12:06:51.017Z,3.50
2023-02-15T12:07:51.143Z,3.60
2023-02-15T12:08:51.031Z,3.90
2023-02-15T12:09:51.180Z,4.30
2023-02-15T12:10:51.067Z,6.10
2023-02-15T12:11:51.224Z,4.00
2023-02-15T12:12:51.112Z,6.30
2023-02-15T12:13:51.250Z,5.60
2023-02-15T12:14:51.132Z,4.70
2023-02-15T12:15:51.338Z,3.80
2023-02-15T12:16:51.203Z,3.60
2023-02-15T12:17:51.321Z,2.40
2023-02-15T12:18:51.205Z,2.60
2023-02-15T12:19:51.529Z,4.50
2023-02-15T12:20:51.243Z,4.20
2023-02-15T12:21:51.390Z,4.30
2023-02-15T12:22:51.406Z,4.00
2023-02-15T12:23:51.426Z,4.60
2023-02-15T12:24:51.440Z,3.40
2023-02-15T12:25:51.459Z,3.30
2023-02-15T12:26:51.341Z,4.40
2023-02-15T12:27:51.511Z,3.70
2023-02-15T12:28:51.377Z,4.30
2023-02-15T12:29:51.576Z,4.60
2023-02-15T12:30:51.586Z,5.60
2023-02-15T12:31:51.650Z,6.70
2023-02-15T12:32:51.583Z,4.90
2023-02-15T12:33:51.604Z,5.10
2023-02-15T12:34:51.507Z,3.00
2023-02-15T12:35:51.640Z,5.70
2023-02-15T12:36:51.542Z,6.10
2023-02-15T12:37:51.680Z,4.90
2023-02-15T12:38:51.568Z,4.30
2023-02-15T12:39:51.719Z,3.90
2023-02-15T12:40:51.745Z,6.20
2023-02-15T12:41:51.765Z,3.80
2023-02-15T12:42:51.647Z,5.30
2023-02-15T12:43:51.803Z,4.10
2023-02-15T12:44:51.827Z,3.40
2023-02-15T12:45:51.853Z,3.60
2023-02-15T12:46:51.787Z,4.10
2023-02-15T12:47:51.885Z,3.50
2023-02-15T12:48:51.786Z,5.20
2023-02-15T12:49:51.928Z,3.40
2023-02-15T12:50:55.157Z,4.90
2023-02-15T12:51:51.887Z,4.80
2023-02-15T12:52:51.899Z,4.30
2023-02-15T12:53:51.900Z,4.30
2023-02-15T12:54:51.906Z,2.90
2023-02-15T12:55:52.060Z,4.90
2023-02-15T12:56:52.079Z,3.80
2023-02-15T12:57:52.103Z,3.90
2023-02-15T12:58:51.993Z,5.80
2023-02-15T12:59:52.030Z,2.70
2023-02-15T13:00:52.096Z,4.20
2023-02-15T13:01:52.307Z,4.00
2023-02-15T13:02:52.079Z,4.60
2023-02-15T13:03:52.244Z,3.30
2023-02-15T13:04:52.135Z,4.20
2023-02-15T13:05:52.282Z,2.40
2023-02-15T13:06:52.179Z,3.60
2023-02-15T13:07:52.328Z,3.80
2023-02-15T13:08:52.350Z,7.30
2023-02-15T13:09:52.376Z,3.40
2023-02-15T13:10:52.268Z,2.70
2023-02-15T13:11:52.420Z,4.00
2023-02-15T13:12:52.441Z,5.20
2023-02-15T13:13:52.352Z,3.20
2023-02-15T13:14:52.366Z,3.00
2023-02-15T13:15:52.508Z,3.00
2023-02-15T13:16:52.483Z,3.40
2023-02-15T13:17:52.565Z,2.40
2023-02-15T13:18:52.465Z,2.70
2023-02-15T13:19:52.478Z,3.30